Penns Park, Pennsylvania
Current Conditions -  °F | °C
As of 10:54 AM on Thursday 30 Oct 2014 (Local Time) from KDYL Reporting Station
Clear Clear  
Wind Chill: 52°   Ceiling: Unl
Heat Index: 52°   Visibility: 10mi
Dew Point: 41°   Wind: 9mph
Humidity: 66%   Direction: 340°NNW
Pressure: 30.02"   Gusts: 18mph
Location:  40.27°N, 75°W
Report Text: KDYL 301454Z AUTO 34008G16KT 10SM CLR 11/05 A3002 RMK AO2 SLP168 T01110050 50006 $
Loading
Personal Weather Stations






























Interactive Weather Map
Tropical Storm Tracking
New forecast layout! Learn more

10-Day Weather Forecast

Advertisements
Track Severe Weather on mobile